EBBR/BRU METAR and TAF weather

Enter ICAO airport designator
Station Type Date Time Source
EBBR METAR 2020/07/06 00:50 UTC NOAA

EBBR 060050Z 24010KT CAVOK 13/10 Q1014 NOSIG


Station Type Date Time Source
EBBR Decoded METAR 2020/07/06 00:50 UTC NOAA

Bruxelles National, Belgium (EBBR) 50-54N 004-32E 58M
Jul 05, 2020 - 08:50 PM EDT / 2020.07.06 0050 UTC
Wind: from the WSW (240 degrees) at 12 MPH (10 KT):0
Visibility: greater than 7 mile(s):0
Temperature: 55 F (13 C)
Dew Point: 50 F (10 C)
Relative Humidity: 81%
Pressure (altimeter): 29.94 in. Hg (1014 hPa)
ob: EBBR 060050Z 24010KT CAVOK 13/10 Q1014 NOSIG
cycle: 1

Station Type Date Time Source
EBBR TAF 2020/07/05 18:59 UTC NOAA

TAF COR EBBR 051950Z 0518/0624 24013KT 9999 SCT035
TEMPO 0518/0520 24016G28KT
BECMG 0615/0617 30010KT

Example: see airport list